createdAt,value
2023-04-25T00:00:24.265Z,98814.03
2023-04-25T00:03:09.522Z,98813.14
2023-04-25T00:05:33.763Z,98811.48
2023-04-25T00:07:58.729Z,98812.95
2023-04-25T00:10:22.566Z,98812.51
2023-04-25T00:12:46.151Z,98813.42
2023-04-25T00:15:11.314Z,98810.64
2023-04-25T00:17:36.065Z,98803.90
2023-04-25T00:19:59.729Z,98806.64
2023-04-25T00:22:23.135Z,98804.23
2023-04-25T00:24:46.527Z,98805.08
2023-04-25T00:27:13.367Z,98804.61
2023-04-25T00:29:37.139Z,98808.27
2023-04-25T00:32:00.901Z,98808.09
2023-04-25T00:34:24.732Z,98810.21
2023-04-25T00:36:48.201Z,98805.71
2023-04-25T00:39:20.761Z,98807.79
2023-04-25T00:41:45.676Z,98806.54
2023-04-25T00:44:11.722Z,98804.50
2023-04-25T00:46:36.369Z,98807.10
2023-04-25T00:48:59.972Z,98806.32
2023-04-25T00:51:24.112Z,98806.08
2023-04-25T00:53:48.781Z,98806.23
2023-04-25T00:56:13.055Z,98808.72
2023-04-25T00:58:36.978Z,98811.39
2023-04-25T01:01:02.202Z,98812.54
2023-04-25T01:03:29.082Z,98810.53
2023-04-25T01:05:52.748Z,98811.84
2023-04-25T01:08:16.489Z,98807.75
2023-04-25T01:10:40.086Z,98810.88
2023-04-25T01:13:04.503Z,98812.02
2023-04-25T01:15:28.246Z,98809.98
2023-04-25T01:17:51.962Z,98811.73
2023-04-25T01:20:16.293Z,98812.55
2023-04-25T01:22:40.203Z,98814.02
2023-04-25T01:25:05.403Z,98810.92
2023-04-25T01:27:30.167Z,98808.84
2023-04-25T01:29:56.103Z,98812.46
2023-04-25T01:32:20.600Z,98806.42
2023-04-25T01:34:44.247Z,98805.90
2023-04-25T01:37:07.909Z,98801.88
2023-04-25T01:39:31.793Z,98800.81
2023-04-25T01:41:57.641Z,98800.41
2023-04-25T01:44:21.396Z,98801.06
2023-04-25T01:46:45.450Z,98801.50
2023-04-25T01:49:09.055Z,98799.88
2023-04-25T01:51:33.059Z,98802.92
2023-04-25T01:54:01.017Z,98803.11
2023-04-25T01:56:37.460Z,98798.90
2023-04-25T01:59:01.619Z,98799.48
2023-04-25T02:01:48.278Z,98800.16
2023-04-25T02:04:19.935Z,98799.19
2023-04-25T02:06:46.782Z,98799.19
2023-04-25T02:09:10.802Z,98803.49
2023-04-25T02:11:38.899Z,98805.38
2023-04-25T02:14:37.871Z,98802.52
2023-04-25T02:17:14.279Z,98801.30
2023-04-25T02:19:51.015Z,98798.42
2023-04-25T02:22:14.416Z,98797.30
2023-04-25T02:24:38.114Z,98795.87
2023-04-25T02:27:01.649Z,98793.56
2023-04-25T02:29:25.207Z,98791.74
2023-04-25T02:31:48.999Z,98789.45
2023-04-25T02:34:14.419Z,98787.13
2023-04-25T02:36:37.817Z,98785.73
2023-04-25T02:39:01.512Z,98789.27
2023-04-25T02:41:28.641Z,98790.83
2023-04-25T02:43:52.577Z,98791.70
2023-04-25T02:46:22.944Z,98791.37
2023-04-25T02:48:52.580Z,98795.97
2023-04-25T02:51:16.994Z,98791.73
2023-04-25T02:53:40.450Z,98792.07
2023-04-25T02:56:04.451Z,98793.46
2023-04-25T02:58:28.285Z,98793.61
2023-04-25T03:00:54.535Z,98793.23
2023-04-25T03:03:18.442Z,98792.16
2023-04-25T03:05:42.393Z,98793.85
2023-04-25T03:08:06.329Z,98790.95
2023-04-25T03:10:32.387Z,98786.79
2023-04-25T03:12:58.556Z,98782.78
2023-04-25T03:15:22.521Z,98783.25
2023-04-25T03:17:46.076Z,98784.45
2023-04-25T03:20:12.473Z,98785.81
2023-04-25T03:22:35.187Z,98786.05
2023-04-25T03:24:59.321Z,98789.11
2023-04-25T03:27:23.180Z,98787.56
2023-04-25T03:29:46.794Z,98792.90
2023-04-25T03:32:11.035Z,98789.45
2023-04-25T03:34:35.148Z,98793.20
2023-04-25T03:36:59.041Z,98799.20
2023-04-25T03:39:22.919Z,98797.28
2023-04-25T03:41:47.468Z,98798.09
2023-04-25T03:44:11.514Z,98801.49
2023-04-25T03:46:37.316Z,98804.17
2023-04-25T03:49:00.734Z,98807.69
2023-04-25T03:51:32.617Z,98806.02
2023-04-25T03:53:56.379Z,98811.24
2023-04-25T03:56:46.075Z,98810.48
2023-04-25T03:59:15.081Z,98813.35
2023-04-25T04:01:38.620Z,98810.96
2023-04-25T04:04:02.762Z,98812.98
2023-04-25T04:06:27.159Z,98816.77
2023-04-25T04:08:58.381Z,98821.30
2023-04-25T04:11:21.990Z,98820.60
2023-04-25T04:13:45.418Z,98824.59
2023-04-25T04:16:09.258Z,98823.83
2023-04-25T04:18:33.691Z,98828.38
2023-04-25T04:21:00.451Z,98829.59
2023-04-25T04:23:27.680Z,98829.09
2023-04-25T04:25:52.637Z,98833.98
2023-04-25T04:28:27.022Z,98831.21
2023-04-25T04:31:10.713Z,98830.58
2023-04-25T04:33:34.332Z,98827.98
2023-04-25T04:36:00.005Z,98830.23
2023-04-25T04:38:25.723Z,98825.19
2023-04-25T04:40:52.768Z,98826.70
2023-04-25T04:43:23.238Z,98828.56
2023-04-25T04:45:52.674Z,98825.17
2023-04-25T04:48:40.537Z,98825.25
2023-04-25T04:51:37.061Z,98830.38
2023-04-25T04:54:11.699Z,98830.29
2023-04-25T04:56:58.925Z,98832.30
2023-04-25T04:59:40.841Z,98831.76
2023-04-25T05:02:15.231Z,98832.03
2023-04-25T05:04:47.779Z,98836.11
2023-04-25T05:07:29.968Z,98835.94
2023-04-25T05:10:09.499Z,98836.19
2023-04-25T05:12:53.106Z,98833.61
2023-04-25T05:15:36.872Z,98840.34
2023-04-25T05:18:18.910Z,98840.03
2023-04-25T05:20:49.500Z,98839.62
2023-04-25T05:23:24.354Z,98835.22
2023-04-25T05:25:47.671Z,98840.44
2023-04-25T05:28:18.856Z,98845.51
2023-04-25T05:31:08.444Z,98843.46
2023-04-25T05:33:46.736Z,98852.13
2023-04-25T05:36:11.346Z,98854.84
2023-04-25T05:38:35.356Z,98854.02
2023-04-25T05:41:19.138Z,98852.07
2023-04-25T05:43:52.100Z,98847.80
2023-04-25T05:46:37.122Z,98844.23
2023-04-25T05:49:17.544Z,98853.02
2023-04-25T05:52:16.567Z,98850.55
2023-04-25T05:54:44.718Z,98851.71
2023-04-25T05:57:08.309Z,98854.77
2023-04-25T05:59:31.861Z,98855.27
2023-04-25T06:01:58.396Z,98860.80
2023-04-25T06:04:22.247Z,98864.80
2023-04-25T06:06:46.152Z,98863.71
2023-04-25T06:09:09.600Z,98866.05
2023-04-25T06:11:33.377Z,98866.52
2023-04-25T06:13:57.060Z,98865.38
2023-04-25T06:16:21.103Z,98868.58
2023-04-25T06:18:44.995Z,98868.65
2023-04-25T06:21:08.891Z,98874.78
2023-04-25T06:23:32.436Z,98879.89
2023-04-25T06:26:01.646Z,98888.16
2023-04-25T06:28:25.336Z,98893.23
2023-04-25T06:30:48.912Z,98902.80
2023-04-25T06:33:15.108Z,98910.77
2023-04-25T06:35:39.082Z,98915.40
2023-04-25T06:38:04.180Z,98925.47
2023-04-25T06:40:27.941Z,98926.98
2023-04-25T06:42:51.719Z,98924.88
2023-04-25T06:45:34.854Z,98911.39
2023-04-25T06:47:58.636Z,98908.77
2023-04-25T06:50:22.496Z,98911.65
2023-04-25T06:52:45.951Z,98906.15
2023-04-25T06:55:10.784Z,98899.73
2023-04-25T06:57:54.283Z,98904.58
2023-04-25T07:00:36.564Z,98912.40
2023-04-25T07:03:00.432Z,98910.80
2023-04-25T07:05:25.207Z,98906.02
2023-04-25T07:07:49.135Z,98901.08
2023-04-25T07:10:12.590Z,98897.57
2023-04-25T07:12:36.250Z,98892.33
2023-04-25T07:14:59.795Z,98890.20
2023-04-25T07:17:23.720Z,98891.17
2023-04-25T07:19:47.309Z,98892.89
2023-04-25T07:22:11.251Z,98896.85
2023-04-25T07:24:35.898Z,98897.48
2023-04-25T07:26:59.812Z,98898.52
2023-04-25T07:29:42.640Z,98897.11
2023-04-25T07:32:06.678Z,98895.04
2023-04-25T07:34:30.751Z,98893.45
2023-04-25T07:36:55.075Z,98894.66
2023-04-25T07:39:19.028Z,98899.11
2023-04-25T07:41:42.712Z,98900.42
2023-04-25T07:44:09.870Z,98907.05
2023-04-25T07:46:33.350Z,98909.40
2023-04-25T07:48:56.880Z,98910.58
2023-04-25T07:51:22.713Z,98904.04
2023-04-25T07:53:46.265Z,98907.98
2023-04-25T07:56:11.187Z,98914.10
2023-04-25T07:58:36.785Z,98912.98
2023-04-25T08:01:01.260Z,98914.24
2023-04-25T08:03:42.657Z,98916.42
2023-04-25T08:06:12.599Z,98913.52
2023-04-25T08:08:45.059Z,98913.23
2023-04-25T08:11:11.019Z,98914.13
2023-04-25T08:13:34.756Z,98917.76
2023-04-25T08:15:58.434Z,98923.13
2023-04-25T08:18:22.032Z,98923.13
2023-04-25T08:20:45.803Z,98932.08
2023-04-25T08:23:11.279Z,98925.02
2023-04-25T08:25:48.480Z,98925.50
2023-04-25T08:28:13.707Z,98923.59
2023-04-25T08:30:37.479Z,98929.04
2023-04-25T08:33:01.933Z,98930.73
2023-04-25T08:35:44.937Z,98933.18
2023-04-25T08:38:09.321Z,98936.23
2023-04-25T08:40:38.723Z,98942.92
2023-04-25T08:43:13.513Z,98945.45
2023-04-25T08:45:39.784Z,98947.54
2023-04-25T08:48:05.352Z,98946.01
2023-04-25T08:50:30.700Z,98953.18
2023-04-25T08:52:59.123Z,98957.63
2023-04-25T08:55:24.493Z,98963.45
2023-04-25T08:57:51.519Z,98968.67
2023-04-25T09:00:16.651Z,98967.22
2023-04-25T09:02:43.202Z,98974.94
2023-04-25T09:05:10.393Z,98973.20
2023-04-25T09:07:34.251Z,98977.66
2023-04-25T09:09:59.852Z,98978.84
2023-04-25T09:12:24.381Z,98981.99
2023-04-25T09:15:04.381Z,98980.67
2023-04-25T09:18:03.615Z,98981.60
2023-04-25T09:20:35.246Z,98981.11
2023-04-25T09:23:06.145Z,98982.23
2023-04-25T09:25:36.722Z,98977.50
2023-04-25T09:28:06.117Z,98978.84
2023-04-25T09:30:34.060Z,98980.15
2023-04-25T09:33:11.886Z,98984.49
2023-04-25T09:35:39.217Z,98987.76
2023-04-25T09:38:07.421Z,98989.59
2023-04-25T09:40:50.054Z,98994.59
2023-04-25T09:43:24.516Z,98999.09
2023-04-25T09:45:48.807Z,98999.27
2023-04-25T09:48:20.357Z,99005.17
2023-04-25T09:50:44.494Z,99007.27
2023-04-25T09:53:08.510Z,99009.48
2023-04-25T09:55:51.624Z,99010.89
2023-04-25T09:58:17.049Z,99014.61
2023-04-25T10:00:42.977Z,99014.63
2023-04-25T10:03:13.054Z,99018.42
2023-04-25T10:05:52.939Z,99022.73
2023-04-25T10:08:17.659Z,99024.20
2023-04-25T10:10:42.009Z,99022.91
2023-04-25T10:13:06.802Z,99020.55
2023-04-25T10:15:30.935Z,99016.82
2023-04-25T10:17:55.135Z,99018.84
2023-04-25T10:20:19.448Z,99020.67
2023-04-25T10:22:59.179Z,99021.30
2023-04-25T10:25:23.466Z,99020.23
2023-04-25T10:27:47.036Z,99022.48
2023-04-25T10:30:15.530Z,99022.29
2023-04-25T10:32:39.453Z,99021.52
2023-04-25T10:35:14.102Z,99020.83
2023-04-25T10:37:40.105Z,99020.34
2023-04-25T10:40:11.472Z,99022.64
2023-04-25T10:42:35.266Z,99023.57
2023-04-25T10:45:06.149Z,99018.52
2023-04-25T10:47:37.098Z,99019.80
2023-04-25T10:50:07.167Z,99018.07
2023-04-25T10:52:31.470Z,99023.02
2023-04-25T10:54:56.562Z,99018.31
2023-04-25T10:57:38.109Z,99020.44
2023-04-25T11:00:13.217Z,99020.29
2023-04-25T11:02:41.789Z,99021.45
2023-04-25T11:05:07.172Z,99024.11
2023-04-25T11:07:39.117Z,99025.39
2023-04-25T11:10:04.878Z,99026.60
2023-04-25T11:12:28.415Z,99024.49
2023-04-25T11:15:01.568Z,99025.66
2023-04-25T11:17:26.896Z,99027.19
2023-04-25T11:19:50.678Z,99021.19
2023-04-25T11:22:14.361Z,99020.13
2023-04-25T11:24:38.490Z,99022.48
2023-04-25T11:27:03.528Z,99019.94
2023-04-25T11:29:38.508Z,99025.21
2023-04-25T11:32:03.490Z,99026.28
2023-04-25T11:34:31.054Z,99026.59
2023-04-25T11:36:58.277Z,99024.00
2023-04-25T11:39:46.843Z,99019.55
2023-04-25T11:42:13.602Z,99021.10
2023-04-25T11:44:40.304Z,99019.16
2023-04-25T11:47:04.230Z,99019.95
2023-04-25T11:49:32.507Z,99020.95
2023-04-25T11:51:56.162Z,99025.21
2023-04-25T11:54:20.307Z,99026.33
2023-04-25T11:56:44.797Z,99021.00
2023-04-25T11:59:17.135Z,99021.91
2023-04-25T12:01:42.548Z,99017.54
2023-04-25T12:04:14.255Z,99015.67
2023-04-25T12:06:41.609Z,99020.15
2023-04-25T12:09:08.362Z,99019.38
2023-04-25T12:11:33.134Z,99018.08
2023-04-25T12:13:56.824Z,99019.95
2023-04-25T12:16:20.552Z,99021.35
2023-04-25T12:18:44.861Z,99016.58
2023-04-25T12:21:10.170Z,99017.61
2023-04-25T12:23:33.731Z,99014.73
2023-04-25T12:26:03.209Z,99013.51
2023-04-25T12:28:38.344Z,99015.45
2023-04-25T12:31:04.603Z,99015.44
2023-04-25T12:33:30.017Z,99017.29
2023-04-25T12:35:54.593Z,99017.95
2023-04-25T12:38:23.915Z,99018.27
2023-04-25T12:40:47.550Z,99022.69
2023-04-25T12:43:11.084Z,99018.73
2023-04-25T12:45:37.664Z,99018.64
2023-04-25T12:48:03.392Z,99018.31
2023-04-25T12:50:27.620Z,99018.20
2023-04-25T12:52:51.505Z,99017.84
2023-04-25T12:55:15.650Z,99017.15
2023-04-25T12:57:39.348Z,99020.23
2023-04-25T13:00:04.602Z,99017.59
2023-04-25T13:02:28.199Z,99013.83
2023-04-25T13:04:52.511Z,99013.63
2023-04-25T13:07:17.076Z,99011.70
2023-04-25T13:09:40.895Z,99005.02
2023-04-25T13:12:05.491Z,99003.29
2023-04-25T13:14:29.349Z,99001.73
2023-04-25T13:16:52.866Z,99002.52
2023-04-25T13:19:17.305Z,99002.71
2023-04-25T13:21:45.056Z,99007.15
2023-04-25T13:24:08.739Z,99006.11
2023-04-25T13:26:36.081Z,99003.56
2023-04-25T13:29:00.924Z,99003.06
2023-04-25T13:31:25.036Z,98997.85
2023-04-25T13:33:48.834Z,98996.69
2023-04-25T13:36:12.514Z,98997.39
2023-04-25T13:38:35.948Z,98997.26
2023-04-25T13:40:59.509Z,98995.98
2023-04-25T13:43:23.426Z,98998.08
2023-04-25T13:45:47.103Z,98991.77
2023-04-25T13:48:12.662Z,98989.27
2023-04-25T13:50:36.572Z,98996.20
2023-04-25T13:53:00.150Z,98993.59
2023-04-25T13:55:23.904Z,98996.23
2023-04-25T13:57:50.163Z,98995.56
2023-04-25T14:00:16.096Z,98993.41
2023-04-25T14:03:00.288Z,98993.34
2023-04-25T14:05:23.954Z,98991.55
2023-04-25T14:07:47.348Z,98991.80
2023-04-25T14:10:12.091Z,98989.86
2023-04-25T14:12:35.985Z,98990.34
2023-04-25T14:14:59.589Z,98990.68
2023-04-25T14:17:23.703Z,98991.94
2023-04-25T14:19:48.655Z,98992.23
2023-04-25T14:22:12.392Z,98995.55
2023-04-25T14:24:36.846Z,98995.48
2023-04-25T14:27:01.104Z,98994.61
2023-04-25T14:29:24.612Z,98996.52
2023-04-25T14:31:48.590Z,98998.77
2023-04-25T14:34:12.195Z,99003.23
2023-04-25T14:36:36.279Z,99004.82
2023-04-25T14:39:00.372Z,99003.08
2023-04-25T14:41:24.128Z,99004.74
2023-04-25T14:43:47.531Z,99003.73
2023-04-25T14:46:12.110Z,99000.13
2023-04-25T14:48:36.040Z,99003.90
2023-04-25T14:51:00.721Z,99002.48
2023-04-25T14:53:24.826Z,99003.52
2023-04-25T14:56:09.380Z,99006.17
2023-04-25T14:58:33.465Z,99001.02
2023-04-25T15:00:56.976Z,99003.96
2023-04-25T15:03:20.774Z,99002.85
2023-04-25T15:05:45.088Z,99002.70
2023-04-25T15:08:08.652Z,99004.55
2023-04-25T15:10:32.349Z,99000.98
2023-04-25T15:12:56.201Z,99004.60
2023-04-25T15:15:26.401Z,99002.65
2023-04-25T15:17:51.029Z,99007.89
2023-04-25T15:20:15.507Z,99007.59
2023-04-25T15:22:39.576Z,99009.72
2023-04-25T15:25:03.869Z,99006.95
2023-04-25T15:27:27.873Z,99009.52
2023-04-25T15:29:51.359Z,99005.04
2023-04-25T15:32:15.509Z,99005.10
2023-04-25T15:34:39.421Z,99012.42
2023-04-25T15:37:02.798Z,99012.41
2023-04-25T15:39:26.129Z,99011.47
2023-04-25T15:41:50.549Z,99010.14
2023-04-25T15:44:13.970Z,99014.08
2023-04-25T15:46:37.628Z,99016.86
2023-04-25T15:49:02.252Z,99015.70
2023-04-25T15:51:26.285Z,99022.03
2023-04-25T15:53:50.536Z,99025.79
2023-04-25T15:56:14.544Z,99029.73
2023-04-25T15:58:38.039Z,99029.61
2023-04-25T16:01:01.762Z,99029.00
2023-04-25T16:03:25.597Z,99029.73
2023-04-25T16:05:49.599Z,99033.55
2023-04-25T16:08:13.266Z,99029.33
2023-04-25T16:10:38.300Z,99029.89
2023-04-25T16:13:01.829Z,99030.27
2023-04-25T16:15:25.609Z,99033.73
2023-04-25T16:17:49.491Z,99037.09
2023-04-25T16:20:15.603Z,99038.84
2023-04-25T16:22:40.640Z,99038.54
2023-04-25T16:25:05.149Z,99042.26
2023-04-25T16:27:28.981Z,99046.25
2023-04-25T16:29:52.577Z,99043.33
2023-04-25T16:32:17.022Z,99045.82
2023-04-25T16:34:40.947Z,99048.51
2023-04-25T16:37:05.174Z,99052.12
2023-04-25T16:39:28.855Z,99053.19
2023-04-25T16:41:52.967Z,99059.50
2023-04-25T16:44:16.730Z,99058.60
2023-04-25T16:46:40.804Z,99058.73
2023-04-25T16:49:04.430Z,99059.46
2023-04-25T16:51:28.507Z,99060.30
2023-04-25T16:53:52.591Z,99058.92
2023-04-25T16:56:16.604Z,99062.91
2023-04-25T16:58:40.229Z,99063.61
2023-04-25T17:01:04.580Z,99065.29
2023-04-25T17:03:28.553Z,99061.33
2023-04-25T17:05:56.060Z,99063.42
2023-04-25T17:08:19.962Z,99064.48
2023-04-25T17:10:43.372Z,99071.07
2023-04-25T17:13:07.166Z,99078.77
2023-04-25T17:15:33.727Z,99076.77
2023-04-25T17:17:59.844Z,99078.38
2023-04-25T17:20:23.493Z,99077.89
2023-04-25T17:22:47.075Z,99080.64
2023-04-25T17:25:11.356Z,99084.44
2023-04-25T17:27:35.880Z,99085.06
2023-04-25T17:29:59.904Z,99086.10
2023-04-25T17:32:23.789Z,99091.46
2023-04-25T17:34:48.574Z,99091.55
2023-04-25T17:37:16.041Z,99094.80
2023-04-25T17:39:39.439Z,99094.39
2023-04-25T17:42:06.128Z,99096.38
2023-04-25T17:44:30.345Z,99098.52
2023-04-25T17:46:53.822Z,99102.95
2023-04-25T17:49:19.103Z,99103.02
2023-04-25T17:51:43.096Z,99107.41
2023-04-25T17:54:07.694Z,99107.87
2023-04-25T17:56:37.021Z,99111.11
2023-04-25T17:59:02.573Z,99112.45
2023-04-25T18:01:26.822Z,99116.88
2023-04-25T18:03:52.528Z,99120.05
2023-04-25T18:06:16.578Z,99126.02
2023-04-25T18:08:40.663Z,99125.02
2023-04-25T18:11:06.068Z,99131.27
2023-04-25T18:13:30.056Z,99133.08
2023-04-25T18:15:55.986Z,99138.31
2023-04-25T18:18:24.451Z,99146.48
2023-04-25T18:20:48.123Z,99147.92
2023-04-25T18:23:11.884Z,99147.44
2023-04-25T18:25:36.255Z,99151.60
2023-04-25T18:27:59.701Z,99157.51
2023-04-25T18:30:23.493Z,99156.95
2023-04-25T18:32:48.871Z,99158.91
2023-04-25T18:35:12.680Z,99159.13
2023-04-25T18:37:38.758Z,99164.52
2023-04-25T18:40:12.206Z,99164.89
2023-04-25T18:42:37.323Z,99166.45
2023-04-25T18:45:00.836Z,99170.39
2023-04-25T18:47:24.616Z,99169.33
2023-04-25T18:49:51.766Z,99175.51
2023-04-25T18:52:15.422Z,99176.31
2023-04-25T18:54:39.902Z,99178.83
2023-04-25T18:57:03.766Z,99186.64
2023-04-25T18:59:27.505Z,99188.70
2023-04-25T19:01:56.199Z,99189.96
2023-04-25T19:04:22.805Z,99191.21
2023-04-25T19:06:48.533Z,99189.29
2023-04-25T19:09:15.101Z,99190.35
2023-04-25T19:11:39.170Z,99192.94
2023-04-25T19:14:02.587Z,99198.02
2023-04-25T19:16:26.863Z,99197.34
2023-04-25T19:18:52.850Z,99198.55
2023-04-25T19:21:16.643Z,99199.79
2023-04-25T19:23:41.338Z,99200.84
2023-04-25T19:26:04.843Z,99201.81
2023-04-25T19:28:29.750Z,99197.87
2023-04-25T19:30:54.141Z,99198.08
2023-04-25T19:33:18.289Z,99198.98
2023-04-25T19:35:42.930Z,99201.95
2023-04-25T19:38:06.534Z,99203.34
2023-04-25T19:40:32.188Z,99203.42
2023-04-25T19:42:58.165Z,99206.79
2023-04-25T19:45:22.150Z,99201.29
2023-04-25T19:47:56.109Z,99198.48
2023-04-25T19:50:21.536Z,99200.91
2023-04-25T19:52:45.293Z,99200.78
2023-04-25T19:55:10.750Z,99201.67
2023-04-25T19:57:37.188Z,99200.15
2023-04-25T20:00:01.500Z,99202.79
2023-04-25T20:02:36.362Z,99198.81
2023-04-25T20:05:00.695Z,99196.73
2023-04-25T20:07:24.168Z,99195.73
2023-04-25T20:09:48.399Z,99195.08
2023-04-25T20:12:12.324Z,99197.52
2023-04-25T20:14:36.025Z,99194.94
2023-04-25T20:17:00.288Z,99197.55
2023-04-25T20:19:23.810Z,99196.13
2023-04-25T20:21:47.283Z,99198.09
2023-04-25T20:24:11.467Z,99199.48
2023-04-25T20:26:35.144Z,99201.39
2023-04-25T20:28:59.004Z,99200.39
2023-04-25T20:31:23.617Z,99195.02
2023-04-25T20:33:48.566Z,99197.30
2023-04-25T20:36:14.506Z,99197.46
2023-04-25T20:38:39.126Z,99195.02
2023-04-25T20:41:03.181Z,99196.95
2023-04-25T20:43:26.755Z,99196.95
2023-04-25T20:45:52.315Z,99199.23
2023-04-25T20:48:15.921Z,99201.80
2023-04-25T20:50:39.488Z,99202.68
2023-04-25T20:53:03.613Z,99208.73
2023-04-25T20:55:27.458Z,99208.23
2023-04-25T20:57:53.439Z,99208.42
2023-04-25T21:00:27.399Z,99210.55
2023-04-25T21:02:52.128Z,99208.04
2023-04-25T21:05:15.773Z,99211.58
2023-04-25T21:07:44.118Z,99208.83
2023-04-25T21:10:09.059Z,99207.81
2023-04-25T21:12:33.255Z,99209.05
2023-04-25T21:14:57.472Z,99206.83
2023-04-25T21:17:21.265Z,99207.67
2023-04-25T21:19:44.808Z,99207.16
2023-04-25T21:22:14.657Z,99206.11
2023-04-25T21:24:38.210Z,99208.00
2023-04-25T21:27:01.794Z,99205.06
2023-04-25T21:29:25.675Z,99205.05
2023-04-25T21:31:49.402Z,99202.61
2023-04-25T21:34:16.129Z,99200.84
2023-04-25T21:36:45.084Z,99202.19
2023-04-25T21:39:19.301Z,99200.96
2023-04-25T21:41:43.750Z,99203.77
2023-04-25T21:44:07.290Z,99201.91
2023-04-25T21:46:30.699Z,99205.75
2023-04-25T21:48:54.784Z,99203.17
2023-04-25T21:51:20.087Z,99200.90
2023-04-25T21:53:43.618Z,99201.55
2023-04-25T21:56:08.109Z,99199.89
2023-04-25T21:58:31.579Z,99202.66
2023-04-25T22:00:55.692Z,99201.77
2023-04-25T22:03:19.389Z,99200.86
2023-04-25T22:05:43.805Z,99202.64
2023-04-25T22:08:07.664Z,99202.84
2023-04-25T22:10:31.542Z,99204.83
2023-04-25T22:12:56.448Z,99204.70
2023-04-25T22:15:22.996Z,99209.65
2023-04-25T22:17:48.272Z,99212.33
2023-04-25T22:20:14.370Z,99207.36
2023-04-25T22:22:39.203Z,99214.98
2023-04-25T22:25:09.074Z,99217.11
2023-04-25T22:27:33.681Z,99220.83
2023-04-25T22:29:57.180Z,99227.98
2023-04-25T22:32:20.864Z,99228.37
2023-04-25T22:35:06.880Z,99228.55
2023-04-25T22:37:30.813Z,99230.02
2023-04-25T22:39:57.620Z,99229.09
2023-04-25T22:42:21.218Z,99230.34
2023-04-25T22:44:45.688Z,99233.27
2023-04-25T22:47:09.775Z,99234.10
2023-04-25T22:49:33.381Z,99240.77
2023-04-25T22:51:56.952Z,99238.44
2023-04-25T22:54:20.994Z,99240.17
2023-04-25T22:56:44.664Z,99242.18
2023-04-25T22:59:10.997Z,99244.00
2023-04-25T23:01:33.944Z,99241.13
2023-04-25T23:03:58.270Z,99244.70
2023-04-25T23:06:22.214Z,99246.27
2023-04-25T23:08:45.669Z,99246.94
2023-04-25T23:11:09.750Z,99248.61
2023-04-25T23:13:35.974Z,99250.50
2023-04-25T23:16:04.494Z,99251.36
2023-04-25T23:18:28.331Z,99252.27
2023-04-25T23:20:52.931Z,99256.14
2023-04-25T23:23:16.408Z,99255.48
2023-04-25T23:25:39.959Z,99254.63
2023-04-25T23:28:03.926Z,99254.98
2023-04-25T23:30:27.654Z,99257.45
2023-04-25T23:32:52.161Z,99255.04
2023-04-25T23:35:15.854Z,99251.95
2023-04-25T23:37:40.037Z,99254.02
2023-04-25T23:40:07.711Z,99254.20
2023-04-25T23:42:31.360Z,99256.69
2023-04-25T23:44:57.080Z,99254.70
2023-04-25T23:47:21.040Z,99259.98
2023-04-25T23:49:45.989Z,99262.15
2023-04-25T23:52:09.556Z,99267.45
2023-04-25T23:54:33.087Z,99273.75
2023-04-25T23:56:56.756Z,99274.17
2023-04-25T23:59:20.361Z,99274.95
